createdAt,value
2022-09-12T00:01:36.514Z,4.60
2022-09-12T00:04:06.129Z,5.30
2022-09-12T00:06:37.564Z,5.60
2022-09-12T00:09:13.692Z,3.20
2022-09-12T00:11:47.103Z,7.10
2022-09-12T00:14:18.982Z,6.60
2022-09-12T00:16:47.841Z,7.90
2022-09-12T00:19:19.724Z,5.90
2022-09-12T00:21:48.896Z,4.00
2022-09-12T00:24:18.960Z,8.40
2022-09-12T00:26:48.766Z,7.60
2022-09-12T00:29:23.091Z,4.00
2022-09-12T00:34:20.922Z,4.30
2022-09-12T00:36:52.052Z,7.00
2022-09-12T00:39:22.173Z,5.20
2022-09-12T00:41:51.636Z,5.30
2022-09-12T00:44:22.901Z,4.80
2022-09-12T00:46:59.603Z,5.90
2022-09-12T00:49:46.634Z,4.00
2022-09-12T00:52:21.000Z,4.90
2022-09-12T00:54:50.537Z,5.80
2022-09-12T00:57:24.546Z,4.40
2022-09-12T01:00:01.898Z,6.20
2022-09-12T01:02:30.921Z,5.50
2022-09-12T01:05:01.667Z,5.60
2022-09-12T01:07:31.029Z,6.20
2022-09-12T01:09:59.918Z,4.10
2022-09-12T01:12:30.411Z,4.40
2022-09-12T01:15:00.325Z,7.20
2022-09-12T01:17:43.884Z,5.50
2022-09-12T01:20:23.105Z,5.20
2022-09-12T01:23:10.327Z,6.40
2022-09-12T01:26:01.391Z,7.20
2022-09-12T01:28:40.010Z,6.30
2022-09-12T01:31:44.088Z,5.10
2022-09-12T01:34:47.480Z,5.20
2022-09-12T01:37:28.853Z,6.80
2022-09-12T01:40:17.592Z,6.90
2022-09-12T01:43:05.120Z,6.40
2022-09-12T01:45:48.691Z,5.00
2022-09-12T01:48:25.450Z,4.00
2022-09-12T01:51:05.198Z,7.50
2022-09-12T01:53:42.793Z,4.50
2022-09-12T01:56:26.376Z,5.30
2022-09-12T01:58:59.349Z,4.90
2022-09-12T02:01:39.013Z,4.20
2022-09-12T02:04:15.392Z,6.60
2022-09-12T02:07:36.176Z,3.50
2022-09-12T02:10:32.378Z,3.40
2022-09-12T02:13:10.517Z,3.90
2022-09-12T02:15:49.646Z,4.50
2022-09-12T02:18:21.588Z,4.70
2022-09-12T02:20:52.184Z,5.90
2022-09-12T02:23:25.745Z,4.60
2022-09-12T02:26:00.861Z,3.80
2022-09-12T02:28:36.531Z,5.60
2022-09-12T02:31:20.548Z,6.30
2022-09-12T02:34:03.151Z,5.70
2022-09-12T02:36:52.379Z,4.70
2022-09-12T02:39:23.159Z,7.70
2022-09-12T02:41:55.146Z,5.80
2022-09-12T02:44:26.356Z,3.30
2022-09-12T02:47:01.701Z,4.20
2022-09-12T02:49:30.371Z,3.90
2022-09-12T02:52:03.115Z,4.90
2022-09-12T02:54:33.475Z,4.70
2022-09-12T02:57:02.503Z,4.90
2022-09-12T02:59:31.171Z,6.10
2022-09-12T03:02:28.637Z,17.20
2022-09-12T03:05:17.617Z,5.80
2022-09-12T03:08:15.597Z,6.50
2022-09-12T03:10:46.936Z,5.90
2022-09-12T03:13:32.451Z,5.10
2022-09-12T03:16:20.788Z,7.00
2022-09-12T03:18:57.740Z,7.10
2022-09-12T03:21:38.844Z,19.80
2022-09-12T03:24:17.394Z,29.20
2022-09-12T03:26:55.534Z,20.20
2022-09-12T03:29:27.701Z,8.60
2022-09-12T03:31:58.193Z,6.70
2022-09-12T03:34:29.340Z,7.70
2022-09-12T03:36:58.724Z,4.30
2022-09-12T03:39:28.427Z,7.50
2022-09-12T03:41:57.672Z,4.40
2022-09-12T03:44:28.626Z,4.80
2022-09-12T03:46:57.335Z,4.60
2022-09-12T03:49:26.595Z,6.60
2022-09-12T03:51:55.211Z,6.20
2022-09-12T03:54:23.950Z,4.10
2022-09-12T03:56:53.093Z,5.60
2022-09-12T03:59:22.527Z,8.60
2022-09-12T04:01:51.151Z,6.60
2022-09-12T04:04:23.981Z,5.10
2022-09-12T04:06:57.915Z,3.10
2022-09-12T04:09:26.653Z,4.50
2022-09-12T04:11:55.336Z,5.70
2022-09-12T04:14:25.714Z,6.00
2022-09-12T04:16:57.118Z,4.20
2022-09-12T04:19:28.142Z,4.90
2022-09-12T04:21:58.146Z,4.30
2022-09-12T04:24:29.496Z,7.40
2022-09-12T04:26:58.795Z,4.90
2022-09-12T04:29:28.137Z,4.30
2022-09-12T04:31:58.335Z,3.70
2022-09-12T04:34:26.942Z,5.60
2022-09-12T04:36:55.510Z,5.00
2022-09-12T04:39:25.083Z,5.60
2022-09-12T04:41:53.884Z,5.70
2022-09-12T04:44:23.158Z,4.40
2022-09-12T04:46:53.402Z,5.70
2022-09-12T04:49:22.756Z,4.00
2022-09-12T04:51:53.872Z,7.20
2022-09-12T04:54:22.862Z,3.70
2022-09-12T04:56:52.983Z,5.10
2022-09-12T04:59:23.921Z,5.90
2022-09-12T05:01:52.873Z,4.50
2022-09-12T05:04:23.646Z,3.30
2022-09-12T05:06:53.495Z,4.60
2022-09-12T05:09:23.185Z,3.90
2022-09-12T05:12:09.696Z,5.10
2022-09-12T05:14:38.427Z,3.30
2022-09-12T05:17:07.079Z,4.40
2022-09-12T05:19:35.747Z,5.30
2022-09-12T05:22:07.196Z,5.00
2022-09-12T05:24:47.261Z,4.90
2022-09-12T05:27:20.478Z,3.60
2022-09-12T05:29:50.366Z,6.90
2022-09-12T05:32:21.230Z,5.00
2022-09-12T05:34:50.220Z,6.10
2022-09-12T05:37:19.010Z,5.10
2022-09-12T05:39:49.013Z,8.10
2022-09-12T05:42:19.054Z,5.90
2022-09-12T05:44:47.744Z,8.10
2022-09-12T05:47:18.454Z,8.80
2022-09-12T05:49:48.434Z,4.40
2022-09-12T05:52:18.103Z,4.40
2022-09-12T05:54:48.844Z,5.80
2022-09-12T05:57:20.085Z,4.50
2022-09-12T05:59:51.145Z,4.70
2022-09-12T06:02:21.091Z,6.20
2022-09-12T06:04:49.874Z,6.20
2022-09-12T06:08:08.725Z,3.20
2022-09-12T06:10:37.844Z,3.90
2022-09-12T06:13:07.134Z,5.00
2022-09-12T06:15:36.405Z,4.00
2022-09-12T06:18:05.459Z,5.10
2022-09-12T06:20:37.475Z,4.80
2022-09-12T06:23:08.296Z,8.60
2022-09-12T06:25:39.272Z,4.00
2022-09-12T06:28:09.964Z,3.50
2022-09-12T06:30:38.975Z,4.40
2022-09-12T06:33:08.085Z,4.00
2022-09-12T06:35:38.624Z,6.90
2022-09-12T06:38:09.992Z,3.70
2022-09-12T06:40:46.756Z,3.80
2022-09-12T06:43:17.363Z,3.70
2022-09-12T06:45:51.609Z,4.20
2022-09-12T06:48:22.462Z,2.80
2022-09-12T06:51:05.280Z,3.00
2022-09-12T06:53:37.393Z,2.90
2022-09-12T06:56:16.505Z,2.30
2022-09-12T06:58:49.106Z,3.10
2022-09-12T07:04:01.697Z,3.20
2022-09-12T07:06:42.034Z,3.90
2022-09-12T07:09:18.386Z,3.80
2022-09-12T07:11:47.610Z,5.40
2022-09-12T07:14:18.197Z,5.60
2022-09-12T07:16:47.856Z,3.90
2022-09-12T07:19:18.009Z,3.50
2022-09-12T07:21:48.151Z,2.00
2022-09-12T07:24:16.860Z,3.90
2022-09-12T07:26:50.382Z,2.60
2022-09-12T07:29:36.010Z,2.90
2022-09-12T07:32:08.142Z,2.90
2022-09-12T07:34:37.180Z,3.20
2022-09-12T07:37:09.763Z,2.70
2022-09-12T07:39:40.587Z,3.30
2022-09-12T07:42:09.849Z,2.20
2022-09-12T07:44:38.951Z,3.10
2022-09-12T07:47:10.411Z,2.80
2022-09-12T07:49:40.873Z,5.00
2022-09-12T07:52:11.930Z,3.40
2022-09-12T07:54:42.661Z,1.90
2022-09-12T07:57:13.008Z,2.60
2022-09-12T07:59:52.519Z,3.40
2022-09-12T08:02:22.773Z,3.60
2022-09-12T08:04:51.951Z,3.70
2022-09-12T08:07:25.682Z,3.80
2022-09-12T08:09:54.992Z,3.10
2022-09-12T08:12:24.487Z,3.40
2022-09-12T08:14:54.998Z,2.00
2022-09-12T08:17:24.723Z,4.90
2022-09-12T08:19:54.154Z,2.50
2022-09-12T08:22:24.659Z,3.50
2022-09-12T08:24:53.223Z,4.60
2022-09-12T08:27:23.186Z,6.50
2022-09-12T08:29:52.011Z,3.20
2022-09-12T08:32:21.386Z,2.70
2022-09-12T08:34:49.871Z,4.50
2022-09-12T08:37:20.144Z,2.80
2022-09-12T08:39:51.445Z,1.80
2022-09-12T08:42:47.769Z,3.40
2022-09-12T08:45:42.180Z,4.60
2022-09-12T08:48:13.081Z,3.60
2022-09-12T08:50:49.313Z,3.80
2022-09-12T08:53:23.779Z,3.20
2022-09-12T08:56:00.621Z,5.40
2022-09-12T08:58:30.341Z,2.80
2022-09-12T09:01:14.133Z,3.80
2022-09-12T09:03:50.602Z,2.10
2022-09-12T09:06:27.245Z,2.90
2022-09-12T09:09:21.829Z,4.40
2022-09-12T09:11:53.579Z,1.90
2022-09-12T09:14:48.166Z,3.10
2022-09-12T09:17:29.953Z,2.90
2022-09-12T09:20:12.760Z,2.70
2022-09-12T09:22:53.593Z,10.60
2022-09-12T09:25:47.403Z,6.20
2022-09-12T09:28:30.426Z,3.30
2022-09-12T09:31:00.115Z,3.40
2022-09-12T09:33:34.335Z,4.50
2022-09-12T09:36:32.078Z,2.80
2022-09-12T09:39:22.584Z,6.50
2022-09-12T09:41:57.204Z,4.10
2022-09-12T09:44:31.361Z,3.60
2022-09-12T09:47:01.807Z,3.30
2022-09-12T09:49:34.445Z,3.10
2022-09-12T09:54:57.338Z,3.50
2022-09-12T09:57:34.955Z,3.30
2022-09-12T10:00:40.133Z,5.30
2022-09-12T10:03:14.862Z,2.60
2022-09-12T10:05:55.253Z,3.60
2022-09-12T10:08:28.226Z,4.00
2022-09-12T10:11:17.834Z,3.00
2022-09-12T10:14:03.522Z,1.40
2022-09-12T10:16:48.578Z,3.50
2022-09-12T10:19:26.936Z,4.70
2022-09-12T10:21:57.188Z,2.20
2022-09-12T10:24:31.550Z,2.00
2022-09-12T10:27:19.239Z,2.90
2022-09-12T10:29:56.351Z,2.40
2022-09-12T10:32:41.494Z,2.90
2022-09-12T10:35:21.546Z,5.00
2022-09-12T10:38:02.928Z,3.70
2022-09-12T10:40:43.139Z,2.90
2022-09-12T10:43:39.859Z,5.90
2022-09-12T10:46:22.841Z,3.00
2022-09-12T10:49:21.723Z,4.20
2022-09-12T10:51:53.918Z,3.50
2022-09-12T10:54:27.365Z,4.90
2022-09-12T10:57:10.425Z,3.10
2022-09-12T10:59:46.993Z,3.20
2022-09-12T11:02:23.809Z,6.10
2022-09-12T11:04:59.830Z,2.40
2022-09-12T11:07:34.908Z,6.20
2022-09-12T11:10:17.699Z,3.90
2022-09-12T11:12:49.408Z,4.10
2022-09-12T11:15:55.673Z,3.70
2022-09-12T11:18:27.475Z,3.80
2022-09-12T11:21:16.914Z,7.00
2022-09-12T11:24:10.685Z,2.70
2022-09-12T11:27:01.958Z,2.60
2022-09-12T11:29:44.071Z,2.30
2022-09-12T11:32:38.994Z,2.00
2022-09-12T11:35:28.653Z,2.10
2022-09-12T11:38:36.861Z,2.40
2022-09-12T11:41:21.147Z,2.90
2022-09-12T11:44:11.057Z,3.50
2022-09-12T11:46:43.225Z,1.40
2022-09-12T11:49:21.529Z,1.60
2022-09-12T11:52:15.753Z,2.00
2022-09-12T11:54:53.333Z,2.10
2022-09-12T11:57:40.372Z,3.30
2022-09-12T12:00:35.757Z,1.30
2022-09-12T12:03:07.692Z,1.70
2022-09-12T12:05:55.912Z,1.90
2022-09-12T12:08:27.076Z,3.30
2022-09-12T12:10:58.856Z,2.10
2022-09-12T12:13:40.659Z,1.80
2022-09-12T12:16:30.316Z,3.00
2022-09-12T12:19:07.557Z,1.40
2022-09-12T12:21:47.094Z,3.50
2022-09-12T12:24:21.730Z,1.60
2022-09-12T12:27:04.568Z,1.90
2022-09-12T12:29:58.018Z,2.80
2022-09-12T12:32:27.961Z,2.10
2022-09-12T12:35:24.141Z,2.20
2022-09-12T12:37:56.317Z,3.20
2022-09-12T12:40:28.082Z,1.90
2022-09-12T12:43:04.117Z,2.20
2022-09-12T12:45:36.380Z,2.80
2022-09-12T12:48:14.879Z,4.00
2022-09-12T12:50:43.742Z,3.40
2022-09-12T12:53:29.567Z,2.60
2022-09-12T12:55:58.700Z,4.70
2022-09-12T12:58:36.683Z,2.30
2022-09-12T13:01:23.345Z,4.90
2022-09-12T13:03:57.054Z,3.00
2022-09-12T13:06:38.093Z,2.40
2022-09-12T13:09:28.119Z,2.60
2022-09-12T13:12:02.339Z,2.30
2022-09-12T13:14:52.313Z,3.60
2022-09-12T13:17:47.600Z,5.60
2022-09-12T13:20:28.267Z,3.00
2022-09-12T13:22:59.446Z,3.70
2022-09-12T13:25:33.456Z,3.60
2022-09-12T13:28:12.672Z,6.10
2022-09-12T13:30:46.820Z,4.70
2022-09-12T13:33:19.439Z,2.50
2022-09-12T13:36:14.475Z,5.60
2022-09-12T13:39:02.656Z,2.80
2022-09-12T13:41:31.325Z,3.30
2022-09-12T13:44:02.899Z,4.60
2022-09-12T13:46:35.115Z,4.20
2022-09-12T13:49:20.691Z,4.50
2022-09-12T13:52:07.309Z,3.60
2022-09-12T13:54:39.328Z,3.90
2022-09-12T13:57:09.019Z,4.70
2022-09-12T13:59:43.078Z,3.00
2022-09-12T14:02:24.153Z,4.90
2022-09-12T14:05:13.556Z,3.90
2022-09-12T14:07:56.956Z,3.20
2022-09-12T14:10:34.150Z,5.20
2022-09-12T14:13:12.361Z,2.80
2022-09-12T14:15:47.844Z,6.90
2022-09-12T14:18:28.847Z,5.20
2022-09-12T14:21:13.188Z,5.20
2022-09-12T14:23:49.165Z,5.00
2022-09-12T14:26:19.445Z,8.90
2022-09-12T14:28:48.676Z,3.90
2022-09-12T14:31:23.960Z,3.40
2022-09-12T14:34:11.483Z,3.50
2022-09-12T14:36:50.936Z,8.50
2022-09-12T14:39:40.743Z,5.70
2022-09-12T14:42:18.700Z,3.10
2022-09-12T14:45:17.968Z,5.50
2022-09-12T14:47:54.096Z,4.70
2022-09-12T14:50:32.166Z,6.20
2022-09-12T14:53:18.201Z,3.00
2022-09-12T14:55:55.439Z,6.00
2022-09-12T14:58:29.032Z,10.30
2022-09-12T15:01:04.145Z,9.70
2022-09-12T15:03:36.368Z,3.20
2022-09-12T15:06:09.544Z,6.40
2022-09-12T15:08:42.759Z,6.70
2022-09-12T15:11:13.623Z,7.70
2022-09-12T15:13:44.806Z,5.30
2022-09-12T15:16:18.621Z,5.90
2022-09-12T15:18:47.453Z,2.40
2022-09-12T15:21:20.907Z,5.30
2022-09-12T15:26:23.708Z,6.80
2022-09-12T15:28:52.367Z,5.10
2022-09-12T15:31:27.549Z,2.50
2022-09-12T15:34:00.708Z,3.10
2022-09-12T15:36:29.971Z,15.10
2022-09-12T15:38:59.566Z,4.90
2022-09-12T15:41:39.065Z,6.50
2022-09-12T15:44:12.889Z,5.10
2022-09-12T15:49:11.564Z,8.40
2022-09-12T15:51:41.414Z,8.00
2022-09-12T15:54:14.552Z,5.70
2022-09-12T15:56:44.304Z,3.90
2022-09-12T15:59:13.903Z,4.70
2022-09-12T16:01:43.119Z,7.40
2022-09-12T16:04:32.302Z,5.30
2022-09-12T16:07:01.568Z,4.00
2022-09-12T16:09:30.462Z,8.70
2022-09-12T16:12:00.116Z,6.50
2022-09-12T16:14:31.500Z,3.90
2022-09-12T16:17:02.088Z,6.30
2022-09-12T16:19:31.743Z,4.70
2022-09-12T16:22:01.381Z,6.60
2022-09-12T16:24:31.613Z,6.40
2022-09-12T16:27:01.301Z,7.20
2022-09-12T16:29:30.505Z,7.70
2022-09-12T16:31:59.211Z,6.10
2022-09-12T16:34:28.016Z,7.00
2022-09-12T16:36:58.014Z,5.60
2022-09-12T16:39:27.689Z,6.00
2022-09-12T16:41:59.214Z,9.40
2022-09-12T16:44:30.969Z,9.60
2022-09-12T16:47:02.085Z,5.80
2022-09-12T16:49:30.991Z,9.10
2022-09-12T16:52:00.073Z,7.30
2022-09-12T16:54:30.829Z,15.30
2022-09-12T16:57:01.050Z,18.90
2022-09-12T16:59:31.476Z,19.90
2022-09-12T17:02:02.672Z,22.80
2022-09-12T17:04:33.862Z,25.10
2022-09-12T17:07:03.867Z,20.30
2022-09-12T17:09:37.200Z,23.70
2022-09-12T17:12:07.957Z,19.80
2022-09-12T17:14:37.895Z,21.90
2022-09-12T17:17:09.348Z,16.70
2022-09-12T17:19:39.978Z,22.40
2022-09-12T17:22:11.640Z,26.60
2022-09-12T17:24:43.787Z,31.30
2022-09-12T17:27:12.889Z,46.50
2022-09-12T17:29:43.115Z,45.20
2022-09-12T17:32:17.343Z,47.20
2022-09-12T17:34:46.445Z,53.60
2022-09-12T17:37:15.421Z,44.80
2022-09-12T17:39:44.259Z,36.10
2022-09-12T17:42:16.722Z,40.60
2022-09-12T17:44:48.641Z,32.60
2022-09-12T17:47:17.551Z,23.80
2022-09-12T17:49:48.263Z,22.30
2022-09-12T17:52:17.095Z,15.60
2022-09-12T17:54:46.676Z,19.70
2022-09-12T17:57:16.045Z,20.70
2022-09-12T17:59:46.633Z,16.70
2022-09-12T18:02:17.168Z,24.20
2022-09-12T18:04:49.062Z,21.80
2022-09-12T18:07:46.620Z,19.60
2022-09-12T18:10:15.944Z,21.30
2022-09-12T18:12:47.885Z,21.00
2022-09-12T18:15:17.700Z,33.00
2022-09-12T18:17:49.989Z,36.80
2022-09-12T18:20:20.655Z,39.90
2022-09-12T18:22:51.736Z,26.80
2022-09-12T18:25:21.304Z,22.70
2022-09-12T18:27:50.457Z,40.70
2022-09-12T18:30:23.540Z,45.50
2022-09-12T18:32:54.265Z,50.20
2022-09-12T18:35:23.803Z,60.40
2022-09-12T18:37:54.056Z,42.50
2022-09-12T18:40:24.858Z,41.20
2022-09-12T18:42:54.283Z,29.10
2022-09-12T18:45:23.986Z,40.00
2022-09-12T18:47:54.288Z,57.90
2022-09-12T18:50:25.304Z,60.70
2022-09-12T18:53:02.285Z,79.40
2022-09-12T18:55:33.994Z,55.70
2022-09-12T18:58:04.253Z,48.50
2022-09-12T19:00:33.848Z,39.70
2022-09-12T19:03:10.536Z,33.30
2022-09-12T19:05:41.708Z,33.70
2022-09-12T19:08:38.343Z,47.40
2022-09-12T19:11:12.059Z,44.00
2022-09-12T19:13:44.248Z,17.40
2022-09-12T19:16:17.041Z,16.90
2022-09-12T19:18:49.207Z,14.90
2022-09-12T19:21:25.873Z,27.10
2022-09-12T19:24:01.446Z,16.50
2022-09-12T19:26:35.242Z,14.50
2022-09-12T19:29:07.745Z,12.90
2022-09-12T19:31:38.867Z,9.10
2022-09-12T19:34:11.273Z,10.00
2022-09-12T19:36:45.368Z,9.50
2022-09-12T19:39:18.693Z,20.10
2022-09-12T19:41:50.750Z,11.60
2022-09-12T19:44:24.336Z,10.40
2022-09-12T19:46:57.453Z,12.10
2022-09-12T19:49:27.620Z,10.80
2022-09-12T19:51:56.932Z,13.90
2022-09-12T19:54:27.165Z,12.70
2022-09-12T19:56:57.900Z,13.20
2022-09-12T19:59:29.154Z,14.90
2022-09-12T20:01:58.966Z,13.50
2022-09-12T20:04:27.917Z,14.50
2022-09-12T20:07:00.827Z,13.40
2022-09-12T20:09:29.616Z,17.50
2022-09-12T20:11:58.128Z,17.50
2022-09-12T20:14:32.367Z,18.40
2022-09-12T20:17:03.955Z,18.70
2022-09-12T20:19:36.047Z,30.70
2022-09-12T20:22:05.824Z,16.30
2022-09-12T20:24:36.875Z,23.30
2022-09-12T20:27:07.149Z,18.30
2022-09-12T20:29:35.891Z,19.50
2022-09-12T20:32:04.620Z,30.10
2022-09-12T20:34:36.224Z,20.30
2022-09-12T20:37:05.662Z,17.00
2022-09-12T20:39:36.367Z,22.70
2022-09-12T20:42:06.447Z,16.70
2022-09-12T20:44:35.255Z,15.70
2022-09-12T20:47:04.046Z,16.90
2022-09-12T20:49:33.076Z,12.00
2022-09-12T20:52:03.231Z,20.20
2022-09-12T20:54:33.569Z,13.40
2022-09-12T20:57:02.195Z,15.90
2022-09-12T20:59:32.881Z,13.80
2022-09-12T21:02:02.655Z,14.10
2022-09-12T21:04:31.886Z,11.40
2022-09-12T21:07:01.937Z,15.70
2022-09-12T21:09:31.494Z,15.70
2022-09-12T21:12:00.021Z,13.60
2022-09-12T21:14:28.610Z,14.10
2022-09-12T21:16:57.388Z,20.90
2022-09-12T21:19:26.711Z,18.90
2022-09-12T21:21:55.288Z,19.90
2022-09-12T21:24:25.156Z,20.00
2022-09-12T21:26:55.701Z,17.00
2022-09-12T21:29:24.413Z,13.00
2022-09-12T21:31:54.250Z,13.20
2022-09-12T21:34:23.938Z,14.10
2022-09-12T21:36:53.892Z,17.40
2022-09-12T21:39:22.565Z,16.60
2022-09-12T21:41:51.077Z,11.80
2022-09-12T21:44:20.571Z,13.70
2022-09-12T21:46:49.113Z,12.20
2022-09-12T21:49:20.825Z,12.50
2022-09-12T21:51:50.557Z,17.00
2022-09-12T21:54:21.072Z,14.10
2022-09-12T21:56:51.979Z,12.70
2022-09-12T21:59:22.667Z,10.20
2022-09-12T22:01:51.339Z,8.70
2022-09-12T22:04:20.883Z,9.70
2022-09-12T22:06:51.159Z,12.10
2022-09-12T22:09:20.095Z,10.80
2022-09-12T22:11:50.360Z,12.30
2022-09-12T22:14:19.503Z,11.80
2022-09-12T22:16:48.452Z,11.40
2022-09-12T22:19:18.810Z,20.50
2022-09-12T22:22:06.200Z,17.80
2022-09-12T22:24:34.958Z,16.10
2022-09-12T22:27:06.445Z,13.50
2022-09-12T22:29:36.858Z,15.60
2022-09-12T22:32:06.130Z,12.10
2022-09-12T22:34:34.788Z,11.30
2022-09-12T22:37:03.510Z,12.00
2022-09-12T22:39:33.718Z,15.50
2022-09-12T22:42:04.220Z,17.60
2022-09-12T22:44:32.886Z,11.20
2022-09-12T22:47:05.483Z,10.30
2022-09-12T22:49:35.839Z,98.80
2022-09-12T22:52:04.796Z,74.50
2022-09-12T22:54:33.325Z,25.60
2022-09-12T22:57:03.263Z,15.40
2022-09-12T22:59:32.595Z,20.70
2022-09-12T23:02:01.457Z,16.50
2022-09-12T23:04:30.355Z,18.20
2022-09-12T23:07:00.285Z,16.60
2022-09-12T23:09:32.133Z,16.30
2022-09-12T23:12:04.892Z,19.80
2022-09-12T23:14:34.939Z,21.20
2022-09-12T23:17:04.075Z,17.90
2022-09-12T23:19:36.410Z,17.30
2022-09-12T23:22:05.087Z,26.80
2022-09-12T23:24:34.218Z,95.50
2022-09-12T23:27:03.100Z,159.40
2022-09-12T23:29:34.724Z,81.30
2022-09-12T23:32:05.175Z,16.60
2022-09-12T23:34:33.931Z,11.10
2022-09-12T23:37:04.284Z,10.20
2022-09-12T23:39:35.449Z,18.10
2022-09-12T23:42:05.251Z,13.00
2022-09-12T23:44:34.146Z,9.60
2022-09-12T23:47:03.787Z,8.70
2022-09-12T23:49:32.510Z,8.70
2022-09-12T23:52:02.965Z,7.70
2022-09-12T23:54:31.867Z,13.60
2022-09-12T23:57:00.632Z,10.30
2022-09-12T23:59:31.398Z,10.10
